createdAt,value
2018-05-13T00:00:48.858Z,41
2018-05-13T00:10:48.678Z,39
2018-05-13T00:20:48.600Z,43
2018-05-13T00:30:48.744Z,44
2018-05-13T00:40:48.642Z,42
2018-05-13T00:50:48.631Z,41
2018-05-13T01:00:48.711Z,41
2018-05-13T01:10:48.577Z,46
2018-05-13T01:20:48.656Z,41
2018-05-13T01:30:48.770Z,46
2018-05-13T01:40:48.564Z,46
2018-05-13T01:50:48.619Z,49
2018-05-13T02:00:48.602Z,43
2018-05-13T02:10:48.616Z,44
2018-05-13T02:20:48.730Z,47
2018-05-13T02:30:48.603Z,43
2018-05-13T02:40:48.574Z,45
2018-05-13T02:50:48.615Z,46
2018-05-13T03:00:48.575Z,44
2018-05-13T03:10:48.689Z,48
2018-05-13T03:20:48.684Z,46
2018-05-13T03:30:48.644Z,40
2018-05-13T03:40:48.664Z,41
2018-05-13T03:50:48.603Z,44
2018-05-13T04:00:48.684Z,39
2018-05-13T04:10:48.691Z,41
2018-05-13T04:20:48.739Z,43
2018-05-13T04:30:48.665Z,37
2018-05-13T04:40:48.724Z,37
2018-05-13T04:50:48.784Z,39
2018-05-13T05:00:48.767Z,41
2018-05-13T05:10:48.677Z,41
2018-05-13T05:20:48.819Z,37
2018-05-13T05:30:48.793Z,37
2018-05-13T05:40:48.807Z,38
2018-05-13T05:50:48.706Z,33
2018-05-13T06:00:48.770Z,34
2018-05-13T06:10:48.820Z,32
2018-05-13T06:20:48.848Z,31
2018-05-13T06:30:48.854Z,29
2018-05-13T06:40:55.036Z,28
2018-05-13T06:50:48.901Z,26
2018-05-13T07:00:48.820Z,28
2018-05-13T07:10:49.097Z,28
2018-05-13T07:20:48.886Z,27
2018-05-13T07:30:48.796Z,24
2018-05-13T07:41:13.968Z,23
2018-05-13T07:50:48.836Z,25
2018-05-13T08:00:49.130Z,24
2018-05-13T08:10:50.193Z,24
2018-05-13T08:20:50.058Z,24
2018-05-13T08:30:48.900Z,23
2018-05-13T08:41:02.226Z,27
2018-05-13T08:50:48.863Z,27
2018-05-13T09:00:48.997Z,30
2018-05-13T09:10:48.912Z,32
2018-05-13T09:20:48.965Z,27
2018-05-13T09:30:50.035Z,27
2018-05-13T09:40:49.131Z,31
2018-05-13T09:50:49.052Z,31
2018-05-13T10:00:49.130Z,30
2018-05-13T10:10:48.926Z,31
2018-05-13T10:20:49.929Z,33
2018-05-13T10:31:26.338Z,33
2018-05-13T10:40:49.320Z,36
2018-05-13T10:50:50.860Z,34
2018-05-13T11:00:50.114Z,33
2018-05-13T11:10:48.980Z,32
2018-05-13T11:21:37.179Z,36
2018-05-13T11:31:37.292Z,34
2018-05-13T11:41:37.632Z,26
2018-05-13T11:51:37.337Z,26
2018-05-13T12:01:37.617Z,26
2018-05-13T12:11:37.224Z,27
2018-05-13T12:21:37.292Z,28
2018-05-13T12:31:37.190Z,24
2018-05-13T12:41:37.277Z,47
2018-05-13T12:51:37.226Z,50
2018-05-13T13:01:37.206Z,49
2018-05-13T13:11:37.283Z,46
2018-05-13T13:21:37.307Z,52
2018-05-13T13:31:37.258Z,55
2018-05-13T13:41:37.318Z,57
2018-05-13T13:51:37.255Z,60
2018-05-13T14:01:37.285Z,57
2018-05-13T14:11:37.302Z,62
2018-05-13T14:21:37.303Z,57
2018-05-13T14:31:37.325Z,69
2018-05-13T14:41:37.274Z,65
2018-05-13T14:51:37.371Z,67
2018-05-13T15:01:37.253Z,65
2018-05-13T15:11:37.226Z,63
2018-05-13T15:21:37.204Z,62
2018-05-13T15:31:37.250Z,62
2018-05-13T15:41:37.263Z,62
2018-05-13T15:51:37.210Z,67
2018-05-13T16:01:37.260Z,66
2018-05-13T16:11:37.197Z,63
2018-05-13T16:21:37.181Z,66
2018-05-13T16:31:37.188Z,66
2018-05-13T16:41:37.236Z,59
2018-05-13T16:51:37.227Z,63
2018-05-13T17:01:37.210Z,59
2018-05-13T17:11:37.263Z,57
2018-05-13T17:21:37.197Z,60
2018-05-13T17:31:37.477Z,57
2018-05-13T17:41:37.264Z,59
2018-05-13T17:51:37.351Z,65
2018-05-13T18:01:37.306Z,58
2018-05-13T18:11:37.318Z,62
2018-05-13T18:21:37.400Z,62
2018-05-13T18:31:37.431Z,65
2018-05-13T18:41:37.410Z,66
2018-05-13T18:51:37.365Z,72
2018-05-13T19:01:37.384Z,79
2018-05-13T19:11:37.389Z,70
2018-05-13T19:21:37.460Z,68
2018-05-13T19:31:37.392Z,67
2018-05-13T19:41:37.398Z,64
2018-05-13T19:51:37.392Z,72
2018-05-13T20:01:37.441Z,73
2018-05-13T20:11:37.342Z,66
2018-05-13T20:21:37.369Z,68
2018-05-13T20:31:37.375Z,70
2018-05-13T20:41:37.479Z,66
2018-05-13T20:51:37.414Z,75
2018-05-13T21:01:37.892Z,73
2018-05-13T21:11:37.453Z,66
2018-05-13T21:21:37.557Z,72
2018-05-13T21:31:37.540Z,71
2018-05-13T21:41:37.557Z,72
2018-05-13T21:51:38.788Z,80
2018-05-13T22:01:37.721Z,79
2018-05-13T22:11:37.666Z,78
2018-05-13T22:23:11.799Z,72
2018-05-13T22:31:37.483Z,81
2018-05-13T22:41:37.554Z,80
2018-05-13T22:51:37.535Z,84
2018-05-13T23:01:37.551Z,79
2018-05-13T23:11:50.271Z,75
2018-05-13T23:21:51.006Z,78
2018-05-13T23:31:37.681Z,78
2018-05-13T23:41:37.637Z,78
2018-05-13T23:51:37.788Z,78
